Pagina principale
METAR-TAF:

METAR-TAF

Aeroporti :

Bolzano, Italia

latitudine: 46-28N, longitudine: 011-20E, altezza: 262 m

Osservazione

Il bollettino è stato emesso 5 ore e 22 minuti fa, alle 20:50 UTC
Vento 4 kt da sud, variando fra est/sud-est e ovest/sud-ovest
Temperature 20°C
Umidità 53%
Pressione 1004 hPa
Visibilità 10 km o più
Poco nuvoloso ad un'altezza di 6000 ft

METAR: LIPB 152050Z 17004KT 110V250 9999 FEW060 20/10 Q1004

Ora: 04:12 (02:12 UTC)

Previsione

Il bollettino è stato emesso 9 ore e 12 minuti fa, alle 17:00 UTC
Previsione valida dal 15 alle 18 UTC al 16 alle 18 UTC
Vento 5 kt da direzioni variabili
Visibilità 10 km o più
Nubi sparse ad un'altezza di 6000 ft
Evoluzione graduale
dal 16 alle 08 UTC al 16 alle 10 UTC
Vento 16 kt da nord con raffiche fino a 28 kt

TAF: LIPB 151700Z 1518/1618 VRB05KT 9999 SCT060 BECMG 1608/1610 35016G28KT

Osservazioni e previsioni meteorologiche di più di 4000 aeroporti (messaggi METAR e TAF).

Le stazioni disponibili sono rappresentate dai dischi gialli e rossi sulla carta.

Puntare il mouse per vedere il nome della stazione.

Clicca sopra per visualizzare le osservazioni e previsioni meteorologiche.

Per cambiare la mappa : fare clic sui pulsanti verdi con una croce nera per ingrandire, il pulsante verde con un trattino per diminuire, o sulla freccia verde per le mappe adiacenti.


METAR-TAF: